Glendale, Indiana
Current Conditions -  °F | °C
As of 1:15 PM on Saturday 20 Dec 2014 (Local Time) from KDCY Reporting Station
Overcast Overcast  
Wind Chill: 33°   Ceiling: 1800
Heat Index: 33°   Visibility: 10mi
Dew Point: 24°   Wind: 0mph
Humidity: 68%   Direction: NA
Pressure: 30.27"   Gusts: NA
Location:  38.6251°N, 87.0452°W
Report Text: KDCY 201915Z AUTO 00000KT 10SM BKN018 OVC070 01/M05 A3027 RMK AO2 T00081046
Loading
Personal Weather Stations






























Interactive Weather Map New forecast layout! Learn more

10-Day Weather Forecast

Advertisements
Track Severe Weather on mobile